Airport ID:KCCB
Update Time (UTC):24/07/2021 15:04
Wind Speed (Knots):2
Wind Direction (Magnetic):160
Temperature (°C):20
Dew Point (°C):16.6
Humidity (%):80.8
Altimeter (inHg):30.04
Density Altitude (Feet):02500
Visibility (Miles):7
Clouds (Hundreds of feet):CLR
Present Weather:
METAR:METAR KCCB 241500Z AUTO 00000KT 6SM HZ CLR 20/17 A3004 RMK AO2

The data displayed is for advisory purposes only and is not to be used for flight planning or operations.